createdAt,value
2017-09-06T00:00:18.472Z,91.90
2017-09-06T00:03:24.087Z,91.60
2017-09-06T00:06:29.751Z,91.30
2017-09-06T00:09:34.666Z,91.60
2017-09-06T00:12:40.004Z,91.50
2017-09-06T00:15:47.608Z,91.40
2017-09-06T00:18:54.052Z,91.40
2017-09-06T00:21:59.975Z,91.10
2017-09-06T00:25:05.433Z,90.80
2017-09-06T00:28:10.940Z,90.90
2017-09-06T00:31:15.921Z,90.90
2017-09-06T00:34:21.508Z,91.00
2017-09-06T00:37:26.955Z,91.20
2017-09-06T00:40:33.168Z,91.10
2017-09-06T00:43:41.412Z,91.00
2017-09-06T00:46:46.848Z,91.00
2017-09-06T00:49:52.075Z,91.00
2017-09-06T00:52:57.221Z,91.10
2017-09-06T00:56:03.685Z,91.20
2017-09-06T00:59:08.932Z,91.10
2017-09-06T01:02:14.719Z,91.20
2017-09-06T01:05:20.224Z,91.20
2017-09-06T01:08:25.331Z,91.30
2017-09-06T01:11:31.872Z,91.30
2017-09-06T01:14:37.074Z,91.20
2017-09-06T01:17:42.428Z,91.20
2017-09-06T01:20:47.927Z,91.10
2017-09-06T01:23:53.151Z,91.00
2017-09-06T01:26:58.527Z,91.10
2017-09-06T01:30:07.003Z,91.10
2017-09-06T01:33:12.033Z,91.10
2017-09-06T01:36:16.954Z,91.20
2017-09-06T01:39:22.187Z,91.20
2017-09-06T01:42:27.496Z,91.20
2017-09-06T01:45:32.948Z,91.20
2017-09-06T01:48:37.963Z,91.10
2017-09-06T01:51:43.691Z,91.20
2017-09-06T01:54:49.455Z,91.00
2017-09-06T01:57:54.765Z,90.90
2017-09-06T02:01:00.107Z,91.00
2017-09-06T02:04:05.727Z,91.20
2017-09-06T02:07:10.840Z,91.30
2017-09-06T02:10:15.535Z,91.20
2017-09-06T02:13:20.748Z,91.00
2017-09-06T02:16:25.779Z,91.10
2017-09-06T02:19:31.549Z,91.20
2017-09-06T02:22:36.319Z,91.40
2017-09-06T02:25:41.380Z,91.90
2017-09-06T02:28:47.735Z,92.20
2017-09-06T02:31:52.609Z,92.30
2017-09-06T02:34:58.276Z,92.50
2017-09-06T02:38:03.604Z,92.80
2017-09-06T02:41:09.127Z,93.00
2017-09-06T02:44:15.692Z,93.40
2017-09-06T02:47:20.891Z,93.60
2017-09-06T02:50:26.549Z,93.70
2017-09-06T02:53:31.508Z,93.80
2017-09-06T02:56:37.091Z,93.80
2017-09-06T02:59:42.299Z,94.00
2017-09-06T03:02:47.487Z,94.10
2017-09-06T03:05:53.490Z,94.00
2017-09-06T03:08:58.712Z,94.20
2017-09-06T03:12:03.496Z,94.40
2017-09-06T03:15:08.913Z,94.40
2017-09-06T03:18:14.025Z,94.50
2017-09-06T03:21:19.439Z,94.50
2017-09-06T03:24:24.619Z,94.50
2017-09-06T03:27:30.286Z,94.50
2017-09-06T03:30:35.682Z,94.40
2017-09-06T03:33:40.950Z,94.30
2017-09-06T03:36:46.287Z,94.30
2017-09-06T03:39:51.644Z,94.20
2017-09-06T03:42:56.659Z,94.00
2017-09-06T03:46:02.255Z,94.10
2017-09-06T03:49:07.336Z,94.10
2017-09-06T03:52:12.908Z,94.10
2017-09-06T03:55:21.212Z,94.20
2017-09-06T03:58:27.007Z,94.20
2017-09-06T04:01:32.635Z,94.10
2017-09-06T04:04:37.774Z,93.80
2017-09-06T04:07:42.655Z,93.90
2017-09-06T04:10:49.079Z,93.80
2017-09-06T04:13:54.592Z,93.80
2017-09-06T04:16:59.884Z,93.90
2017-09-06T04:20:06.715Z,94.50
2017-09-06T04:23:11.631Z,94.60
2017-09-06T04:26:16.955Z,94.50
2017-09-06T04:29:22.320Z,94.70
2017-09-06T04:32:27.937Z,94.90
2017-09-06T04:35:33.192Z,95.10
2017-09-06T04:38:38.982Z,94.90
2017-09-06T04:41:44.417Z,94.40
2017-09-06T04:44:51.925Z,94.70
2017-09-06T04:47:57.364Z,94.30
2017-09-06T04:51:03.573Z,94.20
2017-09-06T04:54:08.636Z,94.20
2017-09-06T04:57:14.632Z,94.10
2017-09-06T05:00:21.139Z,94.20
2017-09-06T05:03:27.311Z,94.30
2017-09-06T05:06:32.235Z,94.50
2017-09-06T05:09:37.516Z,94.50
2017-09-06T05:12:45.076Z,94.60
2017-09-06T05:15:50.100Z,94.50
2017-09-06T05:18:54.936Z,94.60
2017-09-06T05:21:59.777Z,94.60
2017-09-06T05:25:06.327Z,94.80
2017-09-06T05:28:11.832Z,94.80
2017-09-06T05:31:16.750Z,95.00
2017-09-06T05:34:21.947Z,95.00
2017-09-06T05:37:27.067Z,95.10
2017-09-06T05:40:32.136Z,95.00
2017-09-06T05:43:37.645Z,94.80
2017-09-06T05:46:42.881Z,94.60
2017-09-06T05:49:48.197Z,94.40
2017-09-06T05:52:54.248Z,94.00
2017-09-06T05:55:59.692Z,93.50
2017-09-06T05:59:04.852Z,93.00
2017-09-06T06:02:09.731Z,92.10
2017-09-06T06:05:14.742Z,91.40
2017-09-06T06:08:23.597Z,91.10
2017-09-06T06:11:29.023Z,90.50
2017-09-06T06:14:34.068Z,90.30
2017-09-06T06:17:38.857Z,90.20
2017-09-06T06:20:43.737Z,90.20
2017-09-06T06:23:49.395Z,90.30
2017-09-06T06:26:54.624Z,90.40
2017-09-06T06:29:59.745Z,90.20
2017-09-06T06:33:04.516Z,90.10
2017-09-06T06:36:10.295Z,90.00
2017-09-06T06:39:15.435Z,90.00
2017-09-06T06:42:21.532Z,90.00
2017-09-06T06:45:26.482Z,89.20
2017-09-06T06:48:31.640Z,88.80
2017-09-06T06:51:36.921Z,87.90
2017-09-06T06:54:42.192Z,86.70
2017-09-06T06:57:48.158Z,85.90
2017-09-06T07:00:53.745Z,86.10
2017-09-06T07:03:58.876Z,85.20
2017-09-06T07:07:04.254Z,84.60
2017-09-06T07:10:09.241Z,85.80
2017-09-06T07:13:14.501Z,85.50
2017-09-06T07:16:19.448Z,85.50
2017-09-06T07:19:24.453Z,85.90
2017-09-06T07:22:29.308Z,85.20
2017-09-06T07:25:34.656Z,84.90
2017-09-06T07:28:40.327Z,84.10
2017-09-06T07:31:45.388Z,84.50
2017-09-06T07:34:50.452Z,83.60
2017-09-06T07:37:55.416Z,83.60
2017-09-06T07:41:00.608Z,83.50
2017-09-06T07:44:05.756Z,83.00
2017-09-06T07:47:10.909Z,82.90
2017-09-06T07:50:15.580Z,82.80
2017-09-06T07:53:21.187Z,81.80
2017-09-06T07:56:27.019Z,81.30
2017-09-06T07:59:32.084Z,81.60
2017-09-06T08:02:36.968Z,81.70
2017-09-06T08:05:41.986Z,81.50
2017-09-06T08:08:46.696Z,83.40
2017-09-06T08:11:52.328Z,84.30
2017-09-06T08:14:57.728Z,83.50
2017-09-06T08:18:04.461Z,83.10
2017-09-06T08:21:09.634Z,82.50
2017-09-06T08:24:14.785Z,81.80
2017-09-06T08:27:20.074Z,81.90
2017-09-06T08:30:25.103Z,81.60
2017-09-06T08:33:30.404Z,81.80
2017-09-06T08:36:36.067Z,81.80
2017-09-06T08:39:40.851Z,80.60
2017-09-06T08:42:46.372Z,80.20
2017-09-06T08:45:51.860Z,79.40
2017-09-06T08:48:57.028Z,79.80
2017-09-06T08:52:02.577Z,79.20
2017-09-06T08:55:08.181Z,79.00
2017-09-06T08:58:12.979Z,78.30
2017-09-06T09:01:18.624Z,77.60
2017-09-06T09:04:23.663Z,77.60
2017-09-06T09:07:31.380Z,77.20
2017-09-06T09:10:36.160Z,76.30
2017-09-06T09:13:40.961Z,75.50
2017-09-06T09:16:46.447Z,76.00
2017-09-06T09:19:51.868Z,73.10
2017-09-06T09:22:58.447Z,71.60
2017-09-06T09:26:03.925Z,72.50
2017-09-06T09:29:11.856Z,73.20
2017-09-06T09:32:17.044Z,73.10
2017-09-06T09:35:22.792Z,72.70
2017-09-06T09:38:28.552Z,71.70
2017-09-06T09:41:33.440Z,72.10
2017-09-06T09:44:38.929Z,71.70
2017-09-06T09:47:45.629Z,71.50
2017-09-06T09:50:50.716Z,72.50
2017-09-06T09:53:56.522Z,69.60
2017-09-06T09:57:01.272Z,69.90
2017-09-06T10:00:06.412Z,70.60
2017-09-06T10:03:12.115Z,71.90
2017-09-06T10:06:16.948Z,72.80
2017-09-06T10:09:23.597Z,71.70
2017-09-06T10:12:29.092Z,74.40
2017-09-06T10:15:34.579Z,75.70
2017-09-06T10:18:40.368Z,75.90
2017-09-06T10:21:45.479Z,73.30
2017-09-06T10:24:50.272Z,71.10
2017-09-06T10:27:55.931Z,71.20
2017-09-06T10:31:00.966Z,71.10
2017-09-06T10:34:06.312Z,70.90
2017-09-06T10:37:11.604Z,69.30
2017-09-06T10:40:16.523Z,69.30
2017-09-06T10:43:22.199Z,67.80
2017-09-06T10:46:27.120Z,66.30
2017-09-06T10:49:32.920Z,61.70
2017-09-06T10:52:37.773Z,61.60
2017-09-06T10:55:43.531Z,61.20
2017-09-06T10:58:48.664Z,61.60
2017-09-06T11:01:53.535Z,62.40
2017-09-06T11:04:59.143Z,63.60
2017-09-06T11:08:04.157Z,63.70
2017-09-06T11:11:08.877Z,62.80
2017-09-06T11:14:13.564Z,62.10
2017-09-06T11:17:18.811Z,61.00
2017-09-06T11:20:24.013Z,61.00
2017-09-06T11:23:28.692Z,58.60
2017-09-06T11:26:33.676Z,59.20
2017-09-06T11:29:38.763Z,59.70
2017-09-06T11:32:44.391Z,59.00
2017-09-06T11:35:49.761Z,57.00
2017-09-06T11:38:55.391Z,53.90
2017-09-06T11:42:00.797Z,53.80
2017-09-06T11:45:06.336Z,53.70
2017-09-06T11:48:11.336Z,54.30
2017-09-06T11:51:21.719Z,55.00
2017-09-06T11:54:32.994Z,55.80
2017-09-06T11:57:39.869Z,55.70
2017-09-06T12:00:45.337Z,57.90
2017-09-06T12:03:50.900Z,57.00
2017-09-06T12:06:55.989Z,53.90
2017-09-06T12:10:02.101Z,54.90
2017-09-06T12:13:06.723Z,54.50
2017-09-06T12:16:11.763Z,55.10
2017-09-06T12:19:17.169Z,54.80
2017-09-06T12:22:22.272Z,53.90
2017-09-06T12:25:27.415Z,52.20
2017-09-06T12:28:32.854Z,52.30
2017-09-06T12:31:38.172Z,52.30
2017-09-06T12:34:43.186Z,51.90
2017-09-06T12:37:48.178Z,51.80
2017-09-06T12:40:54.228Z,53.00
2017-09-06T12:43:59.648Z,52.70
2017-09-06T12:47:04.588Z,53.30
2017-09-06T12:50:10.880Z,54.90
2017-09-06T12:53:15.723Z,56.50
2017-09-06T12:56:21.278Z,57.20
2017-09-06T12:59:26.845Z,55.80
2017-09-06T13:02:33.562Z,56.50
2017-09-06T13:05:41.808Z,55.00
2017-09-06T13:08:47.040Z,53.50
2017-09-06T13:11:51.913Z,55.50
2017-09-06T13:14:56.612Z,54.60
2017-09-06T13:18:02.379Z,55.20
2017-09-06T13:21:08.200Z,55.30
2017-09-06T13:24:13.619Z,55.80
2017-09-06T13:27:18.649Z,55.10
2017-09-06T13:30:24.183Z,53.20
2017-09-06T13:33:29.183Z,52.70
2017-09-06T13:36:34.661Z,52.30
2017-09-06T13:39:40.010Z,50.80
2017-09-06T13:42:45.064Z,50.10
2017-09-06T13:45:50.128Z,49.90
2017-09-06T13:48:55.171Z,51.80
2017-09-06T13:52:00.839Z,52.20
2017-09-06T13:55:06.612Z,54.10
2017-09-06T13:58:11.781Z,55.00
2017-09-06T14:01:16.813Z,56.30
2017-09-06T14:04:22.028Z,56.70
2017-09-06T14:07:27.284Z,57.20
2017-09-06T14:10:32.680Z,56.20
2017-09-06T14:13:38.384Z,55.50
2017-09-06T14:16:46.098Z,54.70
2017-09-06T14:19:51.831Z,55.00
2017-09-06T14:22:57.269Z,55.70
2017-09-06T14:26:02.908Z,55.00
2017-09-06T14:29:09.525Z,55.20
2017-09-06T14:32:15.388Z,55.00
2017-09-06T14:35:21.644Z,55.20
2017-09-06T14:38:26.789Z,55.20
2017-09-06T14:41:31.872Z,53.90
2017-09-06T14:44:37.527Z,55.60
2017-09-06T14:47:43.022Z,55.30
2017-09-06T14:50:48.019Z,54.40
2017-09-06T14:53:53.099Z,54.50
2017-09-06T14:56:58.404Z,53.00
2017-09-06T15:00:07.907Z,53.80
2017-09-06T15:03:14.748Z,53.60
2017-09-06T15:06:19.788Z,51.80
2017-09-06T15:09:25.000Z,52.20
2017-09-06T15:12:30.641Z,53.50
2017-09-06T15:15:35.899Z,53.00
2017-09-06T15:18:40.890Z,53.50
2017-09-06T15:21:46.136Z,54.50
2017-09-06T15:24:51.868Z,55.80
2017-09-06T15:27:56.800Z,55.90
2017-09-06T15:31:02.186Z,55.00
2017-09-06T15:34:07.094Z,54.50
2017-09-06T15:37:12.481Z,55.00
2017-09-06T15:40:18.843Z,54.20
2017-09-06T15:43:24.371Z,51.70
2017-09-06T15:46:29.529Z,52.00
2017-09-06T15:49:34.374Z,51.10
2017-09-06T15:52:39.350Z,51.90
2017-09-06T15:55:44.370Z,51.40
2017-09-06T15:58:49.107Z,51.80
2017-09-06T16:01:54.624Z,51.70
2017-09-06T16:04:59.832Z,51.80
2017-09-06T16:08:04.668Z,52.40
2017-09-06T16:11:10.239Z,51.00
2017-09-06T16:14:15.259Z,51.70
2017-09-06T16:17:20.320Z,53.20
2017-09-06T16:20:25.772Z,53.00
2017-09-06T16:23:31.815Z,52.40
2017-09-06T16:26:36.916Z,52.90
2017-09-06T16:29:42.527Z,53.30
2017-09-06T16:32:48.077Z,53.40
2017-09-06T16:35:53.384Z,53.90
2017-09-06T16:38:58.429Z,54.30
2017-09-06T16:42:04.038Z,55.00
2017-09-06T16:45:09.184Z,54.70
2017-09-06T16:48:14.426Z,55.70
2017-09-06T16:51:19.666Z,56.00
2017-09-06T16:54:24.451Z,55.60
2017-09-06T16:57:29.885Z,55.90
2017-09-06T17:00:35.405Z,55.80
2017-09-06T17:03:48.681Z,56.40
2017-09-06T17:06:54.408Z,56.70
2017-09-06T17:10:04.564Z,56.70
2017-09-06T17:13:09.559Z,56.50
2017-09-06T17:16:16.567Z,56.70
2017-09-06T17:19:21.591Z,56.80
2017-09-06T17:22:26.480Z,56.90
2017-09-06T17:25:31.235Z,56.90
2017-09-06T17:28:36.469Z,57.30
2017-09-06T17:31:42.192Z,57.40
2017-09-06T17:34:47.075Z,57.90
2017-09-06T17:37:52.072Z,58.00
2017-09-06T17:40:56.828Z,57.70
2017-09-06T17:44:01.745Z,58.20
2017-09-06T17:47:07.419Z,58.40
2017-09-06T17:50:12.355Z,58.70
2017-09-06T17:53:17.116Z,59.00
2017-09-06T17:56:22.673Z,59.20
2017-09-06T17:59:27.871Z,59.20
2017-09-06T18:02:33.609Z,59.40
2017-09-06T18:05:38.795Z,59.80
2017-09-06T18:08:44.534Z,59.70
2017-09-06T18:11:49.493Z,60.20
2017-09-06T18:14:54.706Z,60.40
2017-09-06T18:18:00.115Z,60.80
2017-09-06T18:21:05.687Z,60.70
2017-09-06T18:24:11.131Z,60.90
2017-09-06T18:27:16.672Z,62.30
2017-09-06T18:30:21.894Z,62.00
2017-09-06T18:33:27.463Z,62.60
2017-09-06T18:36:32.748Z,62.80
2017-09-06T18:39:38.365Z,62.90
2017-09-06T18:42:43.305Z,66.30
2017-09-06T18:45:48.171Z,68.00
2017-09-06T18:48:53.567Z,69.60
2017-09-06T18:52:00.913Z,70.50
2017-09-06T18:55:06.384Z,70.50
2017-09-06T18:58:11.460Z,70.10
2017-09-06T19:01:16.580Z,70.50
2017-09-06T19:04:21.552Z,70.40
2017-09-06T19:07:27.084Z,70.00
2017-09-06T19:10:32.123Z,69.80
2017-09-06T19:13:37.283Z,69.70
2017-09-06T19:16:42.881Z,69.40
2017-09-06T19:19:48.147Z,69.00
2017-09-06T19:22:53.765Z,69.30
2017-09-06T19:25:59.032Z,68.40
2017-09-06T19:29:04.032Z,68.70
2017-09-06T19:32:09.547Z,68.70
2017-09-06T19:35:15.093Z,68.80
2017-09-06T19:38:20.008Z,68.60
2017-09-06T19:41:25.824Z,68.30
2017-09-06T19:44:30.833Z,68.30
2017-09-06T19:47:35.663Z,69.30
2017-09-06T19:50:41.091Z,68.60
2017-09-06T19:53:46.793Z,68.60
2017-09-06T19:56:51.869Z,69.00
2017-09-06T19:59:57.095Z,68.60
2017-09-06T20:03:02.776Z,68.80
2017-09-06T20:06:08.126Z,69.10
2017-09-06T20:09:13.156Z,69.40
2017-09-06T20:12:18.306Z,69.60
2017-09-06T20:15:23.809Z,69.60
2017-09-06T20:18:29.524Z,69.80
2017-09-06T20:21:34.863Z,70.30
2017-09-06T20:24:42.020Z,70.10
2017-09-06T20:27:47.359Z,70.10
2017-09-06T20:30:52.225Z,70.50
2017-09-06T20:33:57.462Z,71.80
2017-09-06T20:37:02.718Z,72.30
2017-09-06T20:40:07.412Z,72.60
2017-09-06T20:43:16.084Z,72.10
2017-09-06T20:46:20.959Z,71.60
2017-09-06T20:49:26.019Z,72.10
2017-09-06T20:52:31.328Z,72.30
2017-09-06T20:55:36.820Z,72.60
2017-09-06T20:58:42.019Z,72.70
2017-09-06T21:01:47.745Z,71.10
2017-09-06T21:04:52.764Z,70.30
2017-09-06T21:07:57.771Z,70.60
2017-09-06T21:11:03.336Z,70.60
2017-09-06T21:14:08.300Z,69.90
2017-09-06T21:17:13.675Z,70.20
2017-09-06T21:20:19.032Z,70.10
2017-09-06T21:23:24.040Z,69.30
2017-09-06T21:26:28.987Z,69.40
2017-09-06T21:29:34.348Z,69.50
2017-09-06T21:32:39.851Z,69.60
2017-09-06T21:35:44.896Z,69.30
2017-09-06T21:38:50.253Z,69.30
2017-09-06T21:41:55.577Z,69.50
2017-09-06T21:45:00.882Z,69.40
2017-09-06T21:48:05.684Z,69.70
2017-09-06T21:51:11.429Z,70.00
2017-09-06T21:54:16.764Z,70.10
2017-09-06T21:57:21.891Z,70.20
2017-09-06T22:00:27.703Z,70.70
2017-09-06T22:03:32.631Z,71.10
2017-09-06T22:06:37.829Z,71.70
2017-09-06T22:09:43.356Z,73.30
2017-09-06T22:12:48.347Z,74.90
2017-09-06T22:15:53.064Z,75.80
2017-09-06T22:18:58.428Z,77.00
2017-09-06T22:22:03.871Z,77.90
2017-09-06T22:25:08.756Z,78.80
2017-09-06T22:28:14.451Z,79.70
2017-09-06T22:31:19.926Z,80.50
2017-09-06T22:34:25.236Z,80.90
2017-09-06T22:37:30.797Z,81.50
2017-09-06T22:40:35.884Z,82.00
2017-09-06T22:43:41.495Z,82.50
2017-09-06T22:46:47.202Z,82.60
2017-09-06T22:49:52.066Z,82.80
2017-09-06T22:52:57.541Z,83.00
2017-09-06T22:56:03.157Z,82.70
2017-09-06T22:59:08.795Z,82.80
2017-09-06T23:02:13.751Z,82.80
2017-09-06T23:05:18.960Z,83.20
2017-09-06T23:08:23.964Z,83.30
2017-09-06T23:11:29.298Z,83.40
2017-09-06T23:14:34.663Z,83.30
2017-09-06T23:17:40.299Z,83.20
2017-09-06T23:20:45.524Z,83.00
2017-09-06T23:23:50.355Z,83.00
2017-09-06T23:26:55.305Z,83.10
2017-09-06T23:30:00.305Z,83.40
2017-09-06T23:33:05.521Z,83.00
2017-09-06T23:36:11.076Z,83.00
2017-09-06T23:39:15.928Z,82.80
2017-09-06T23:42:20.767Z,82.90
2017-09-06T23:45:25.716Z,83.20
2017-09-06T23:48:31.037Z,83.20
2017-09-06T23:51:36.860Z,83.40
2017-09-06T23:54:42.397Z,83.60
2017-09-06T23:57:47.223Z,83.60
